Time;durP1;ratioP1;P1;durP2;ratioP2;P2;SDS_P1;SDS_P2;PMS_P1;PMS_P2;Temp;Humidity;BMP_temperature;BMP_pressure;BME280_temperature;BME280_humidity;BME280_pressure;Samples;Min_cycle;Max_cycle;Signal;HPM_P1;HPM_P2
2023/06/11 00:02:25;;;;;;;11.30;10.30;;;;;;;15.26;100.00;97589.53;6238003;28;20263;-47
2023/06/11 00:05:27;;;;;;;12.07;9.60;;;;;;;15.25;100.00;97584.44;6237176;28;20267;-48
2023/06/11 00:08:30;;;;;;;11.20;10.20;;;;;;;15.21;100.00;97579.63;6236978;28;20232;-49
2023/06/11 00:11:34;;;;;;;11.83;10.63;;;;;;;15.18;100.00;97590.91;6238609;28;20736;-47
2023/06/11 00:14:36;;;;;;;12.90;11.60;;;;;;;15.14;100.00;97587.16;6222554;28;20246;-46
2023/06/11 00:17:38;;;;;;;12.07;10.67;;;;;;;15.11;100.00;97582.34;6238914;28;20663;-49
2023/06/11 00:20:42;;;;;;;11.20;10.20;;;;;;;15.09;100.00;97581.81;6245331;28;20239;-46
2023/06/11 00:23:44;;;;;;;12.90;11.60;;;;;;;14.92;100.00;97560.66;6246004;28;20227;-49
2023/06/11 00:26:47;;;;;;;13.20;11.60;;;;;;;15.01;100.00;97587.72;6243959;28;20841;-46
2023/06/11 00:29:49;;;;;;;13.50;12.00;;;;;;;14.90;100.00;97584.28;6220220;28;20238;-47
2023/06/11 00:32:51;;;;;;;9.63;8.73;;;;;;;14.95;100.00;97592.31;6241623;28;20295;-47
2023/06/11 00:35:53;;;;;;;9.77;8.87;;;;;;;14.93;100.00;97593.66;6241693;28;20233;-46
2023/06/11 00:38:56;;;;;;;9.97;9.07;;;;;;;14.91;100.00;97601.97;6204596;28;20297;-46
2023/06/11 00:41:59;;;;;;;9.87;9.00;;;;;;;14.86;100.00;97591.25;6243232;28;20231;-46
2023/06/11 00:45:05;;;;;;;9.77;8.77;;;;;;;14.79;100.00;97600.66;6242865;28;20301;-46
2023/06/11 00:48:09;;;;;;;9.57;8.77;;;;;;;14.57;100.00;97568.78;6243453;28;20215;-48
2023/06/11 00:51:11;;;;;;;11.57;10.43;;;;;;;14.71;100.00;97599.31;6242145;28;20243;-46
2023/06/11 00:54:16;;;;;;;12.53;10.80;;;;;;;14.69;100.00;97606.84;6242939;28;20347;-47
2023/06/11 00:57:22;;;;;;;12.07;10.67;;;;;;;14.68;100.00;97594.53;6239664;28;20247;-49
2023/06/11 01:00:25;;;;;;;14.37;12.10;;;;;;;14.67;100.00;97592.88;6243735;28;20802;-47
2023/06/11 01:03:28;;;;;;;13.50;12.20;;;;;;;14.59;100.00;97572.81;6207536;28;20226;-45
2023/06/11 01:06:33;;;;;;;14.03;12.63;;;;;;;14.68;100.00;97589.97;6210505;28;20321;-47
2023/06/11 01:09:37;;;;;;;15.53;13.00;;;;;;;14.51;100.00;97569.84;6219884;28;20223;-46
2023/06/11 01:12:39;;;;;;;13.53;12.13;;;;;;;14.69;100.00;97593.44;6242718;28;20366;-47
2023/06/11 01:15:42;;;;;;;14.10;12.53;;;;;;;14.68;100.00;97600.69;6240770;28;20223;-49
2023/06/11 01:19:03;;;;;;;13.47;11.73;;;;;;;14.67;100.00;97598.25;6224816;28;20313;-48
2023/06/11 01:22:29;;;;;;;13.50;12.13;;;;;;;14.62;100.00;97606.31;6223897;28;20243;-48
2023/06/11 01:25:44;;;;;;;12.37;10.93;;;;;;;14.57;100.00;97604.44;6208366;28;20377;-49
2023/06/11 01:28:52;;;;;;;11.50;10.40;;;;;;;14.55;100.00;97613.81;6239567;28;20366;-49
2023/06/11 01:31:56;;;;;;;11.77;10.67;;;;;;;14.52;100.00;97611.66;6242703;28;20746;-50
2023/06/11 01:35:02;;;;;;;13.00;9.93;;;;;;;14.43;100.00;97614.03;6209299;28;20231;-53
2023/06/11 01:38:13;;;;;;;12.50;10.53;;;;;;;14.37;100.00;97620.47;6238415;28;20224;-47
2023/06/11 01:41:27;;;;;;;12.67;11.33;;;;;;;14.30;100.00;97614.59;6242017;28;20224;-47
2023/06/11 01:44:29;;;;;;;12.33;11.13;;;;;;;14.25;100.00;97618.06;6241217;28;20224;-46
2023/06/11 01:47:31;;;;;;;13.00;11.70;;;;;;;14.19;100.00;97611.91;6225391;28;20273;-46
2023/06/11 01:50:35;;;;;;;11.87;10.70;;;;;;;14.17;100.00;97615.91;6222723;28;20219;-48
2023/06/11 01:53:38;;;;;;;12.07;10.97;;;;;;;14.06;100.00;97600.91;6215988;28;20316;-49
2023/06/11 01:56:40;;;;;;;15.87;12.23;;;;;;;14.11;100.00;97608.94;6213182;28;20239;-48
2023/06/11 01:59:43;;;;;;;14.07;12.67;;;;;;;14.12;100.00;97618.59;6229688;28;20237;-46
2023/06/11 02:02:48;;;;;;;13.33;11.63;;;;;;;14.08;100.00;97612.16;6241007;28;20274;-48
2023/06/11 02:05:52;;;;;;;13.43;12.17;;;;;;;13.86;100.00;97589.09;6224630;28;20254;-46
2023/06/11 02:08:54;;;;;;;15.67;12.20;;;;;;;14.02;100.00;97621.25;6222697;28;20235;-49
2023/06/11 02:11:57;;;;;;;13.23;11.93;;;;;;;13.98;100.00;97620.16;6240990;28;20256;-46
2023/06/11 02:15:00;;;;;;;13.30;12.00;;;;;;;13.94;100.00;97619.91;6241506;28;20245;-48
2023/06/11 02:18:02;;;;;;;12.67;10.87;;;;;;;13.92;100.00;97622.03;6202495;28;20220;-48
2023/06/11 02:21:05;;;;;;;13.50;12.27;;;;;;;13.89;100.00;97620.69;6219952;28;20732;-47
2023/06/11 02:24:07;;;;;;;14.80;11.63;;;;;;;13.90;100.00;97626.84;6241420;28;20226;-47
2023/06/11 02:27:09;;;;;;;14.20;12.77;;;;;;;13.89;100.00;97634.09;6240256;28;20219;-48
2023/06/11 02:30:13;;;;;;;13.73;12.33;;;;;;;13.91;100.00;97631.13;6241885;28;20230;-47
2023/06/11 02:33:15;;;;;;;14.07;12.57;;;;;;;13.81;100.00;97612.38;6240419;28;20215;-48
2023/06/11 02:36:17;;;;;;;18.30;12.23;;;;;;;13.87;100.00;97633.53;6240121;28;20230;-48
2023/06/11 02:39:19;;;;;;;14.53;12.83;;;;;;;13.85;100.00;97638.38;6222417;28;20242;-49
2023/06/11 02:42:22;;;;;;;14.63;13.23;;;;;;;13.84;100.00;97638.59;6240412;28;20238;-48
2023/06/11 02:45:24;;;;;;;13.83;12.53;;;;;;;13.82;100.00;97632.72;6230264;28;20696;-49
2023/06/11 02:48:26;;;;;;;14.00;12.70;;;;;;;13.80;100.00;97635.66;6238264;28;20230;-48
2023/06/11 02:51:28;;;;;;;13.50;12.13;;;;;;;13.81;100.00;97633.78;6241076;28;20234;-46
2023/06/11 02:54:31;;;;;;;18.37;11.90;;;;;;;13.78;100.00;97640.47;6221582;28;20237;-49
2023/06/11 02:57:33;;;;;;;12.63;11.33;;;;;;;13.76;100.00;97645.28;6239343;28;20597;-49
2023/06/11 03:00:35;;;;;;;12.87;11.57;;;;;;;13.74;100.00;97646.59;6216083;28;20341;-48
2023/06/11 03:03:38;;;;;;;12.07;10.87;;;;;;;13.73;100.00;97645.00;6222754;28;20216;-48
2023/06/11 03:06:40;;;;;;;11.03;9.93;;;;;;;13.54;100.00;97624.03;6223643;28;20832;-47
2023/06/11 03:09:43;;;;;;;12.10;10.77;;;;;;;13.70;100.00;97651.69;6199439;28;20310;-48
2023/06/11 03:12:45;;;;;;;11.37;10.00;;;;;;;13.68;100.00;97651.94;6222081;28;20446;-50
2023/06/11 03:15:47;;;;;;;10.47;9.47;;;;;;;13.70;100.00;97656.25;6238297;28;20222;-46
2023/06/11 03:18:49;;;;;;;11.73;9.80;;;;;;;13.59;100.00;97636.66;6234707;28;20373;-47
2023/06/11 03:21:51;;;;;;;9.87;8.93;;;;;;;13.67;100.00;97658.38;6238796;28;20329;-46
2023/06/11 03:24:54;;;;;;;8.97;8.13;;;;;;;13.68;100.00;97657.28;6238769;28;20728;-48
2023/06/11 03:28:09;;;;;;;10.27;8.60;;;;;;;13.67;100.00;97658.38;6236550;28;20236;-49
2023/06/11 03:31:11;;;;;;;9.70;8.77;;;;;;;13.66;100.00;97661.31;6229548;28;20223;-47
2023/06/11 03:34:13;;;;;;;9.87;8.97;;;;;;;13.63;100.00;97657.28;6238798;28;20234;-48
2023/06/11 03:37:16;;;;;;;9.60;8.70;;;;;;;13.60;100.00;97665.84;6230002;28;20234;-48
2023/06/11 03:40:18;;;;;;;10.03;9.13;;;;;;;13.56;100.00;97653.25;6216424;28;20231;-48
2023/06/11 03:43:22;;;;;;;10.53;8.47;;;;;;;13.57;100.00;97661.00;6222037;28;20235;-45
2023/06/11 03:46:24;;;;;;;9.23;8.43;;;;;;;13.56;100.00;97664.75;6241376;28;20233;-47
2023/06/11 03:49:26;;;;;;;8.93;8.13;;;;;;;13.58;100.00;97664.50;6235169;28;20243;-45
2023/06/11 03:52:29;;;;;;;10.13;9.20;;;;;;;13.59;100.00;97666.09;6216781;28;20243;-48
2023/06/11 03:55:31;;;;;;;9.37;8.57;;;;;;;13.59;100.00;97666.91;6233289;28;20258;-48
2023/06/11 03:58:33;;;;;;;9.57;8.73;;;;;;;13.49;100.00;97658.00;6237303;28;20285;-45
2023/06/11 04:01:35;;;;;;;10.00;9.00;;;;;;;13.58;100.00;97661.81;6204630;28;20246;-46
2023/06/11 04:04:38;;;;;;;8.90;8.10;;;;;;;13.49;100.00;97656.16;6202720;28;20222;-45
2023/06/11 04:07:40;;;;;;;10.20;9.20;;;;;;;13.63;100.00;97669.84;6203180;28;20226;-46
2023/06/11 04:10:43;;;;;;;10.03;9.13;;;;;;;13.66;100.00;97672.03;6239865;28;20235;-49
2023/06/11 04:13:50;;;;;;;10.40;9.40;;;;;;;13.70;100.00;97678.47;6234762;28;20235;-48
2023/06/11 04:16:52;;;;;;;12.47;9.80;;;;;;;13.77;100.00;97676.34;6239110;28;20259;-46
2023/06/11 04:19:55;;;;;;;10.60;9.60;;;;;;;13.81;100.00;97676.63;6220130;28;20235;-49
2023/06/11 04:22:57;;;;;;;12.33;10.47;;;;;;;13.57;100.00;97630.75;6235087;28;20607;-46
2023/06/11 04:26:01;;;;;;;12.83;9.83;;;;;;;13.90;100.00;97675.06;6238894;28;20230;-49
2023/06/11 04:29:04;;;;;;;11.30;10.23;;;;;;;13.71;100.00;97647.16;6220241;28;20246;-46
2023/06/11 04:32:08;;;;;;;11.57;10.10;;;;;;;13.98;100.00;97684.44;6219985;28;20239;-49
2023/06/11 04:35:11;;;;;;;12.67;10.97;;;;;;;13.97;100.00;97689.00;6220094;28;20239;-48
2023/06/11 04:38:18;;;;;;;11.10;9.97;;;;;;;14.00;100.00;97691.16;6233350;28;20246;-48
2023/06/11 04:41:23;;;;;;;11.50;10.40;;;;;;;13.96;100.00;97681.22;6237010;28;20235;-45
2023/06/11 04:44:28;;;;;;;13.57;11.00;;;;;;;14.09;100.00;97694.13;6216565;28;20228;-48
2023/06/11 04:47:34;;;;;;;12.57;10.63;;;;;;;14.10;100.00;97693.06;6218984;28;20223;-46
2023/06/11 04:50:37;;;;;;;11.20;10.03;;;;;;;14.16;100.00;97695.47;6224540;28;20763;-47
2023/06/11 04:53:41;;;;;;;9.90;9.00;;;;;;;14.20;100.00;97699.25;6235853;28;20228;-46
2023/06/11 04:56:45;;;;;;;12.97;10.10;;;;;;;14.23;100.00;97695.22;6203796;28;20746;-47
2023/06/11 04:59:49;;;;;;;11.07;9.90;;;;;;;14.10;100.00;97669.75;6230129;28;20226;-48
2023/06/11 05:02:53;;;;;;;10.57;9.57;;;;;;;14.23;100.00;97686.38;6219895;28;20243;-46
2023/06/11 05:05:56;;;;;;;10.10;9.10;;;;;;;14.23;100.00;97697.09;6208051;28;20763;-45
2023/06/11 05:08:59;;;;;;;11.10;10.10;;;;;;;14.23;100.00;97699.78;6229385;28;20253;-48
2023/06/11 05:12:02;;;;;;;11.60;10.50;;;;;;;14.19;100.00;97702.19;6229259;28;20696;-48
2023/06/11 05:15:06;;;;;;;11.90;9.67;;;;;;;14.13;100.00;97689.84;6224862;28;20239;-46
2023/06/11 05:18:09;;;;;;;11.30;10.30;;;;;;;14.19;100.00;97692.28;6223732;28;20200;-48
2023/06/11 05:21:12;;;;;;;11.07;10.07;;;;;;;14.21;100.00;97694.69;6220785;28;20346;-45
2023/06/11 05:24:19;;;;;;;10.77;9.77;;;;;;;14.24;100.00;97696.84;6241709;28;20212;-48
2023/06/11 05:27:29;;;;;;;12.03;10.73;;;;;;;14.22;100.00;97685.59;6234366;28;20227;-46
2023/06/11 05:30:38;;;;;;;10.47;9.47;;;;;;;14.27;100.00;97687.47;6238368;28;20243;-48
2023/06/11 05:33:43;;;;;;;12.10;10.90;;;;;;;14.28;100.00;97695.22;6240456;28;20239;-47
2023/06/11 05:36:48;;;;;;;12.70;11.17;;;;;;;14.29;100.00;97696.06;6242263;28;20236;-49
2023/06/11 05:39:51;;;;;;;10.97;9.87;;;;;;;14.28;100.00;97702.47;6240287;28;20333;-48
2023/06/11 05:42:55;;;;;;;12.90;11.50;;;;;;;14.32;100.00;97704.34;6221055;28;20252;-47
2023/06/11 05:45:58;;;;;;;12.10;10.83;;;;;;;14.32;100.00;97712.41;6242067;28;20735;-49
2023/06/11 05:49:01;;;;;;;13.63;11.33;;;;;;;14.34;100.00;97714.84;6206536;28;20230;-49
2023/06/11 05:52:04;;;;;;;12.17;11.07;;;;;;;14.27;100.00;97711.59;6219964;28;20240;-49
2023/06/11 05:55:07;;;;;;;12.07;10.97;;;;;;;14.22;100.00;97706.22;6223017;28;20239;-45
2023/06/11 05:58:10;;;;;;;11.30;10.20;;;;;;;14.34;100.00;97721.00;6221835;28;20318;-47
2023/06/11 06:01:13;;;;;;;10.67;9.77;;;;;;;14.39;100.00;97718.31;6240763;28;20232;-48
2023/06/11 06:04:17;;;;;;;12.17;11.17;;;;;;;14.41;100.00;97720.72;6207400;28;20246;-48
2023/06/11 06:07:22;;;;;;;10.43;9.53;;;;;;;14.31;100.00;97716.16;6218284;28;20238;-48
2023/06/11 06:10:26;;;;;;;10.73;9.83;;;;;;;14.43;100.00;97726.63;6243001;28;20226;-47
2023/06/11 06:13:29;;;;;;;9.67;8.77;;;;;;;14.50;100.00;97731.78;6223070;28;20236;-47
2023/06/11 06:16:35;;;;;;;11.33;10.27;;;;;;;14.50;100.00;97727.22;6223099;28;20231;-47
2023/06/11 06:19:41;;;;;;;10.67;9.60;;;;;;;14.42;100.00;97725.00;6220194;28;20668;-47
2023/06/11 06:22:43;;;;;;;10.97;9.97;;;;;;;14.39;100.00;97722.88;6239987;28;20314;-49
2023/06/11 06:25:47;;;;;;;10.83;9.73;;;;;;;14.48;100.00;97740.06;6223602;28;20768;-46
2023/06/11 06:28:50;;;;;;;11.30;10.10;;;;;;;14.50;100.00;97748.66;6240356;28;20235;-46
2023/06/11 06:31:52;;;;;;;10.50;9.60;;;;;;;14.52;100.00;97751.06;6223511;28;20230;-49
2023/06/11 06:34:55;;;;;;;10.03;9.20;;;;;;;14.46;100.00;97752.91;6205979;28;20255;-47
2023/06/11 06:37:58;;;;;;;10.33;9.43;;;;;;;14.55;100.00;97762.06;6240438;28;20329;-46
2023/06/11 06:41:01;;;;;;;9.53;8.73;;;;;;;14.58;100.00;97763.41;6221495;28;20583;-46
2023/06/11 06:44:03;;;;;;;10.47;9.57;;;;;;;14.60;100.00;97759.41;6222076;28;20322;-47
2023/06/11 06:47:06;;;;;;;10.93;9.83;;;;;;;14.62;100.00;97764.47;6202777;28;20636;-46
2023/06/11 06:50:09;;;;;;;10.87;9.97;;;;;;;14.61;100.00;97761.00;6235901;28;20729;-46
2023/06/11 06:53:11;;;;;;;10.10;9.20;;;;;;;14.62;100.00;97757.25;6216515;28;20240;-47
2023/06/11 06:56:14;;;;;;;11.80;10.70;;;;;;;14.61;100.00;97765.56;6221332;28;20238;-46
2023/06/11 06:59:17;;;;;;;11.60;10.67;;;;;;;14.61;100.00;97769.03;6221053;28;20235;-51
2023/06/11 07:02:19;;;;;;;10.87;9.97;;;;;;;14.61;100.00;97776.28;6222822;28;20732;-48
2023/06/11 07:05:22;;;;;;;10.80;9.90;;;;;;;14.48;100.00;97741.94;6217697;28;20243;-46
2023/06/11 07:08:26;;;;;;;12.03;10.93;;;;;;;14.61;100.00;97766.38;6239498;28;20675;-45
2023/06/11 07:11:29;;;;;;;11.87;10.67;;;;;;;14.65;100.00;97764.75;6218643;28;20246;-48
2023/06/11 07:14:32;;;;;;;10.97;10.07;;;;;;;14.66;100.00;97765.56;6222065;28;20285;-46
2023/06/11 07:17:35;;;;;;;11.13;10.13;;;;;;;14.74;100.00;97773.09;6222414;28;20605;-46
2023/06/11 07:20:37;;;;;;;11.77;10.53;;;;;;;14.63;100.00;97750.84;6210505;28;20232;-48
2023/06/11 07:23:40;;;;;;;11.23;10.20;;;;;;;14.80;100.00;97772.03;6222022;28;20240;-46
2023/06/11 07:26:42;;;;;;;11.80;10.60;;;;;;;14.84;100.00;97770.44;6205007;28;20238;-47
2023/06/11 07:29:45;;;;;;;11.77;10.77;;;;;;;14.89;100.00;97775.00;6223719;28;20584;-49
2023/06/11 07:32:48;;;;;;;11.87;10.67;;;;;;;14.89;100.00;97772.31;6237813;28;20315;-47
2023/06/11 07:35:52;;;;;;;11.00;10.00;;;;;;;14.86;100.00;97778.19;6217871;28;20235;-49
2023/06/11 07:38:55;;;;;;;10.83;9.80;;;;;;;14.75;100.00;97772.03;6238789;28;20230;-48
2023/06/11 07:41:57;;;;;;;11.33;10.33;;;;;;;14.84;100.00;97783.84;6229914;28;20238;-48
2023/06/11 07:44:59;;;;;;;11.40;10.33;;;;;;;14.83;100.00;97778.75;6216433;28;20219;-49
2023/06/11 07:48:02;;;;;;;11.80;10.63;;;;;;;14.76;100.00;97776.31;6221336;28;20575;-47
2023/06/11 07:51:05;;;;;;;13.17;11.77;;;;;;;14.76;100.00;97778.19;6207690;28;20212;-48
2023/06/11 07:54:08;;;;;;;12.97;11.70;;;;;;;14.83;100.00;97781.44;6236010;28;20228;-48
2023/06/11 07:57:12;;;;;;;12.27;11.13;;;;;;;14.87;100.00;97782.47;6238573;28;20275;-47
2023/06/11 08:00:16;;;;;;;12.50;11.40;;;;;;;14.91;100.00;97780.88;6236591;28;20242;-46
2023/06/11 08:03:19;;;;;;;14.30;12.83;;;;;;;15.01;100.00;97785.44;6237604;28;20263;-48
2023/06/11 08:06:21;;;;;;;13.73;12.20;;;;;;;15.02;100.00;97774.44;6237849;28;20227;-49
2023/06/11 08:09:23;;;;;;;13.17;12.03;;;;;;;15.10;100.00;97775.81;6242249;28;20226;-48
2023/06/11 08:12:26;;;;;;;11.83;10.73;;;;;;;15.06;100.00;97758.63;6236484;28;20772;-49
2023/06/11 08:15:29;;;;;;;11.63;10.43;;;;;;;15.19;98.71;97785.72;6239609;28;20233;-47
2023/06/11 08:18:31;;;;;;;11.70;10.57;;;;;;;15.27;96.67;97791.63;6238823;28;20245;-46
2023/06/11 08:21:34;;;;;;;10.97;10.07;;;;;;;15.39;97.26;97790.28;6237162;28;20575;-48
2023/06/11 08:24:36;;;;;;;12.07;10.97;;;;;;;15.49;97.52;97797.53;6237578;28;20252;-48
2023/06/11 08:27:38;;;;;;;12.40;10.70;;;;;;;15.58;98.41;97789.72;6237536;28;20230;-47
2023/06/11 08:30:40;;;;;;;10.37;9.47;;;;;;;15.60;96.54;97785.69;6240194;28;20232;-47
2023/06/11 08:33:42;;;;;;;10.47;9.50;;;;;;;15.68;95.35;97779.81;6237541;28;20784;-47
2023/06/11 08:36:45;;;;;;;10.97;9.87;;;;;;;15.77;95.94;97779.25;6239466;28;20254;-46
2023/06/11 08:39:47;;;;;;;10.60;9.50;;;;;;;15.84;95.87;97791.31;6239838;28;20262;-48
2023/06/11 08:42:50;;;;;;;9.60;8.80;;;;;;;15.82;95.63;97789.97;6242817;28;20316;-50
2023/06/11 08:45:52;;;;;;;10.43;9.37;;;;;;;15.83;95.61;97786.22;6243943;28;20243;-49
2023/06/11 08:49:00;;;;;;;10.77;9.77;;;;;;;15.88;92.84;97799.63;6243224;28;20265;-47
2023/06/11 08:52:03;;;;;;;10.03;9.13;;;;;;;15.95;93.74;97790.19;6240136;28;20290;-47
2023/06/11 08:55:06;;;;;;;9.87;8.97;;;;;;;16.03;93.63;97788.84;6241861;28;20351;-47
2023/06/11 08:58:11;;;;;;;10.33;9.43;;;;;;;16.09;92.48;97801.16;6217863;28;20255;-46
2023/06/11 09:01:13;;;;;;;9.87;9.07;;;;;;;16.17;89.81;97795.25;6219409;28;20242;-47
2023/06/11 09:04:15;;;;;;;10.53;8.97;;;;;;;16.18;89.01;97794.16;6220517;28;20246;-45
2023/06/11 09:07:24;;;;;;;11.70;9.10;;;;;;;16.16;89.99;97803.59;6218500;28;20745;-46
2023/06/11 09:10:26;;;;;;;9.40;8.33;;;;;;;16.16;90.15;97796.31;6216776;28;20235;-46
2023/06/11 09:13:28;;;;;;;10.33;9.33;;;;;;;16.15;88.62;97781.25;6201741;28;20235;-47
2023/06/11 09:16:39;;;;;;;9.70;8.80;;;;;;;16.19;89.65;97801.13;6217588;28;20235;-47
2023/06/11 09:19:43;;;;;;;10.17;9.03;;;;;;;16.23;89.65;97806.75;6216415;28;20351;-49
2023/06/11 09:22:45;;;;;;;8.47;7.77;;;;;;;16.25;87.75;97807.28;6198730;28;20239;-47
2023/06/11 09:25:48;;;;;;;8.87;8.07;;;;;;;16.28;88.27;97811.31;6215126;28;20232;-46
2023/06/11 09:28:53;;;;;;;9.80;8.90;;;;;;;16.15;87.60;97783.94;6218532;28;20270;-49
2023/06/11 09:32:07;;;;;;;8.97;8.07;;;;;;;16.17;88.57;97787.16;6200215;28;20236;-47
2023/06/11 09:35:29;;;;;;;9.07;8.17;;;;;;;16.32;88.49;97809.69;6225569;28;20231;-46
2023/06/11 09:38:34;;;;;;;9.27;8.37;;;;;;;16.09;87.24;97776.97;6223722;28;20227;-46
2023/06/11 09:41:47;;;;;;;8.97;8.07;;;;;;;16.38;86.85;97813.97;6218175;28;20224;-46
2023/06/11 09:44:49;;;;;;;8.97;8.17;;;;;;;16.24;86.89;97809.16;6214146;28;20256;-48
2023/06/11 09:47:53;;;;;;;8.67;7.87;;;;;;;16.36;87.99;97811.56;6199272;28;20229;-47
2023/06/11 09:50:55;;;;;;;9.47;8.67;;;;;;;16.32;87.19;97798.94;6208855;28;20682;-47
2023/06/11 09:53:58;;;;;;;9.10;8.30;;;;;;;16.46;88.26;97816.88;6183288;28;20239;-49
2023/06/11 09:57:01;;;;;;;8.57;7.53;;;;;;;16.57;87.49;97823.03;6231996;28;20314;-47
2023/06/11 10:00:09;;;;;;;9.30;8.40;;;;;;;16.64;87.41;97823.50;6220021;28;20250;-48
2023/06/11 10:03:12;;;;;;;8.97;8.17;;;;;;;16.66;87.02;97826.75;6241311;28;20277;-45
2023/06/11 10:06:24;;;;;;;9.00;8.10;;;;;;;16.46;85.66;97798.06;6233677;28;20216;-46
2023/06/11 10:09:29;;;;;;;8.87;8.07;;;;;;;16.69;86.46;97823.47;6240263;28;20599;-47
2023/06/11 10:12:34;;;;;;;9.27;8.47;;;;;;;16.67;86.79;97833.72;6240335;28;20728;-45
2023/06/11 10:15:37;;;;;;;9.53;8.63;;;;;;;16.72;85.95;97827.53;6239562;28;20542;-46
2023/06/11 10:18:39;;;;;;;8.20;7.50;;;;;;;16.74;85.50;97833.44;6240633;28;20224;-50
2023/06/11 10:21:50;;;;;;;9.20;8.43;;;;;;;16.68;85.43;97826.44;6240313;28;20342;-48
2023/06/11 10:24:59;;;;;;;8.93;8.03;;;;;;;16.70;86.10;97838.56;6237894;28;20657;-48
2023/06/11 10:28:02;;;;;;;8.80;8.10;;;;;;;16.68;86.68;97831.84;6241230;28;20640;-48
2023/06/11 10:31:05;;;;;;;8.90;8.00;;;;;;;16.50;85.93;97809.06;6242611;28;20246;-46
2023/06/11 10:34:07;;;;;;;9.87;8.90;;;;;;;16.73;85.79;97838.00;6245804;28;20222;-49
2023/06/11 10:37:11;;;;;;;9.10;8.20;;;;;;;16.79;86.26;97840.69;6237485;28;20314;-46
2023/06/11 10:40:14;;;;;;;8.23;7.43;;;;;;;16.82;85.09;97837.44;6236047;28;20247;-48
2023/06/11 10:43:21;;;;;;;9.03;8.20;;;;;;;16.89;85.39;97838.72;6238087;28;20227;-46
2023/06/11 10:46:24;;;;;;;8.47;7.77;;;;;;;16.99;84.39;97819.84;6241952;28;20238;-48
2023/06/11 10:49:27;;;;;;;8.90;8.00;;;;;;;17.10;85.58;97831.34;6238281;28;20313;-47
2023/06/11 10:52:29;;;;;;;8.23;7.43;;;;;;;17.14;83.50;97829.72;6240877;28;20605;-48
2023/06/11 10:55:32;;;;;;;8.53;7.77;;;;;;;16.85;82.61;97775.81;6237599;28;20239;-45
2023/06/11 10:58:36;;;;;;;8.63;7.23;;;;;;;17.18;81.60;97811.88;6238936;28;20232;-46
2023/06/11 11:01:38;;;;;;;8.90;8.10;;;;;;;17.35;81.27;97827.66;6236360;28;20234;-48
2023/06/11 11:04:53;;;;;;;8.10;7.37;;;;;;;17.42;80.65;97830.81;6238245;28;20248;-47
2023/06/11 11:07:55;;;;;;;7.60;6.90;;;;;;;17.46;81.93;97823.78;6239631;28;20238;-49
2023/06/11 11:11:01;;;;;;;7.93;7.13;;;;;;;17.57;80.49;97826.38;6202803;28;20321;-46
2023/06/11 11:14:04;;;;;;;8.10;7.30;;;;;;;17.59;81.11;97825.03;6240867;28;20322;-47
2023/06/11 11:17:06;;;;;;;7.73;7.03;;;;;;;17.68;79.91;97826.00;6234387;28;20228;-49
2023/06/11 11:20:14;;;;;;;9.77;7.80;;;;;;;17.57;80.56;97807.53;6239174;28;20230;-48
2023/06/11 11:23:16;;;;;;;7.60;7.00;;;;;;;17.65;83.29;97826.59;6203008;28;20239;-49
2023/06/11 11:26:19;;;;;;;8.90;7.73;;;;;;;17.58;81.66;97818.00;6238720;28;20314;-48
2023/06/11 11:29:21;;;;;;;8.17;7.47;;;;;;;17.49;81.86;97825.91;6237575;28;20222;-46
2023/06/11 11:32:30;;;;;;;8.37;7.43;;;;;;;17.45;81.17;97824.06;6237507;28;20661;-48
2023/06/11 11:35:33;;;;;;;8.37;7.57;;;;;;;17.33;81.87;97819.03;6237069;28;20401;-47
2023/06/11 11:38:36;;;;;;;7.53;6.83;;;;;;;17.22;81.82;97822.91;6238406;28;20238;-49
2023/06/11 11:41:50;;;;;;;7.33;6.63;;;;;;;17.09;82.40;97835.09;6222045;28;20608;-48
2023/06/11 11:44:57;;;;;;;8.20;7.50;;;;;;;17.00;83.45;97823.34;6232788;28;20247;-48
2023/06/11 11:48:01;;;;;;;7.60;6.90;;;;;;;17.08;83.30;97819.25;6234835;28;20227;-49
2023/06/11 11:51:07;;;;;;;7.80;7.07;;;;;;;17.05;84.36;97807.16;6230977;28;20370;-47
2023/06/11 11:54:15;;;;;;;8.67;7.07;;;;;;;17.19;83.47;97824.28;6240160;28;20234;-49
2023/06/11 11:57:20;;;;;;;8.00;7.30;;;;;;;17.21;84.65;97816.72;6233349;28;20250;-48
2023/06/11 12:00:26;;;;;;;8.67;7.00;;;;;;;17.30;82.75;97821.50;6239040;28;20235;-50
2023/06/11 12:03:29;;;;;;;8.10;7.30;;;;;;;17.23;82.63;97805.66;6236603;28;20246;-49
2023/06/11 12:06:32;;;;;;;7.83;7.13;;;;;;;17.32;83.46;97816.63;6240009;28;20767;-50
2023/06/11 12:09:37;;;;;;;9.03;7.60;;;;;;;17.38;83.05;97810.91;6237998;28;20222;-49
2023/06/11 12:12:39;;;;;;;7.83;7.13;;;;;;;17.50;84.82;97808.66;6233673;28;20222;-46
2023/06/11 12:15:41;;;;;;;7.70;7.00;;;;;;;17.65;83.67;97802.34;6241803;28;20239;-47
2023/06/11 12:18:43;;;;;;;8.97;8.10;;;;;;;17.99;80.90;97801.47;6244555;28;20247;-53
2023/06/11 12:21:46;;;;;;;8.60;7.80;;;;;;;17.97;80.81;97811.72;6207968;28;20582;-55
2023/06/11 12:24:51;;;;;;;8.40;7.63;;;;;;;18.00;79.28;97801.19;6241671;28;20244;-47
2023/06/11 12:27:54;;;;;;;8.20;7.50;;;;;;;18.08;79.76;97807.03;6247210;28;20777;-48
2023/06/11 12:30:57;;;;;;;8.20;7.37;;;;;;;17.95;80.13;97782.38;6244377;28;20369;-49
2023/06/11 12:33:59;;;;;;;9.53;7.40;;;;;;;18.12;80.98;97808.84;6244265;28;20238;-48
2023/06/11 12:37:02;;;;;;;10.20;7.50;;;;;;;18.11;80.22;97807.25;6241958;28;20238;-47
2023/06/11 12:40:05;;;;;;;8.93;8.03;;;;;;;17.99;82.06;97793.41;6243249;28;20235;-48
2023/06/11 12:43:07;;;;;;;8.93;8.13;;;;;;;18.03;81.24;97805.22;6243055;28;20810;-49
2023/06/11 12:46:10;;;;;;;10.00;8.63;;;;;;;18.11;78.18;97784.88;6238594;28;20235;-47
2023/06/11 12:49:13;;;;;;;8.70;7.80;;;;;;;18.23;78.05;97804.19;6237960;28;20235;-46
2023/06/11 12:52:15;;;;;;;8.03;7.33;;;;;;;18.04;78.70;97801.41;6242727;28;20369;-47
2023/06/11 12:55:18;;;;;;;8.10;7.40;;;;;;;17.98;78.13;97779.13;6238615;28;20361;-46
2023/06/11 12:58:22;;;;;;;9.03;8.17;;;;;;;18.04;80.34;97801.41;6242825;28;20231;-48
2023/06/11 13:01:24;;;;;;;9.27;8.20;;;;;;;18.10;78.35;97802.16;6243282;28;20289;-46
2023/06/11 13:04:26;;;;;;;8.23;7.53;;;;;;;18.16;77.89;97798.31;6247029;28;20239;-46
2023/06/11 13:07:29;;;;;;;8.57;7.83;;;;;;;18.16;78.46;97803.69;6246537;28;20231;-48
2023/06/11 13:10:31;;;;;;;8.20;7.50;;;;;;;18.23;77.31;97796.09;6244373;28;20238;-47
2023/06/11 13:13:33;;;;;;;7.63;6.90;;;;;;;18.27;78.74;97789.81;6225927;28;20223;-46
2023/06/11 13:16:36;;;;;;;9.70;7.40;;;;;;;18.48;77.89;97797.66;6242422;28;20832;-47
2023/06/11 13:19:38;;;;;;;7.73;7.03;;;;;;;18.60;75.34;97791.81;6238416;28;20227;-48
2023/06/11 13:22:40;;;;;;;8.13;7.33;;;;;;;18.55;77.04;97790.00;6237517;28;20880;-48
2023/06/11 13:25:43;;;;;;;7.53;6.83;;;;;;;18.63;75.76;97786.66;6240248;28;20232;-47
2023/06/11 13:28:50;;;;;;;8.20;7.40;;;;;;;18.77;76.94;97795.66;6239831;28;20235;-49
2023/06/11 13:31:52;;;;;;;8.80;7.83;;;;;;;18.91;75.36;97751.72;6242829;28;20238;-48
2023/06/11 13:34:54;;;;;;;9.00;7.70;;;;;;;19.37;72.41;97794.19;6235216;28;20235;-49
2023/06/11 13:37:58;;;;;;;7.80;7.07;;;;;;;19.28;72.76;97784.06;6238978;28;20239;-49
2023/06/11 13:41:03;;;;;;;7.33;6.70;;;;;;;19.51;69.69;97784.22;6239504;28;20232;-46
2023/06/11 13:44:08;;;;;;;7.77;7.00;;;;;;;19.38;75.25;97791.19;6232436;28;20232;-47
2023/06/11 13:47:10;;;;;;;7.43;6.83;;;;;;;19.12;72.27;97763.81;6241867;28;20321;-49
2023/06/11 13:50:13;;;;;;;7.23;6.63;;;;;;;19.25;72.31;97791.94;6238172;28;20341;-47
2023/06/11 13:53:16;;;;;;;7.47;6.77;;;;;;;19.19;72.88;97791.22;6241192;28;20242;-49
2023/06/11 13:56:18;;;;;;;7.57;6.83;;;;;;;18.99;73.98;97789.66;6237671;28;20252;-48
2023/06/11 13:59:21;;;;;;;8.53;6.93;;;;;;;19.01;72.61;97783.94;6241970;28;20240;-50
2023/06/11 14:02:23;;;;;;;7.47;6.43;;;;;;;18.91;73.79;97792.22;6221184;28;20233;-47
2023/06/11 14:05:26;;;;;;;7.50;6.80;;;;;;;18.81;76.72;97790.47;6242027;28;20610;-46
2023/06/11 14:08:29;;;;;;;8.17;6.87;;;;;;;18.75;75.68;97794.34;6241724;28;20280;-48
2023/06/11 14:11:32;;;;;;;7.27;6.57;;;;;;;18.79;75.62;97789.97;6238079;28;20311;-48